createdAt,value
2023-04-02T00:00:28.570Z,4.81
2023-04-02T00:05:51.760Z,4.58
2023-04-02T00:11:01.283Z,4.50
2023-04-02T00:16:07.207Z,4.32
2023-04-02T00:21:12.748Z,4.32
2023-04-02T00:26:31.026Z,4.33
2023-04-02T00:31:38.079Z,4.21
2023-04-02T00:36:42.175Z,4.09
2023-04-02T00:41:46.996Z,4.20
2023-04-02T00:46:51.427Z,4.13
2023-04-02T00:51:59.160Z,4.00
2023-04-02T00:57:02.511Z,3.99
2023-04-02T01:02:18.775Z,4.35
2023-04-02T01:08:10.335Z,4.52
2023-04-02T01:13:19.101Z,4.63
2023-04-02T01:18:33.928Z,4.33
2023-04-02T01:24:04.609Z,4.50
2023-04-02T01:29:53.492Z,4.34
2023-04-02T01:34:58.458Z,4.19
2023-04-02T01:40:19.779Z,4.35
2023-04-02T01:45:25.249Z,4.07
2023-04-02T01:50:32.264Z,4.19
2023-04-02T01:55:41.461Z,4.32
2023-04-02T02:00:51.133Z,4.30
2023-04-02T02:05:54.644Z,4.23
2023-04-02T02:10:58.502Z,4.63
2023-04-02T02:16:04.182Z,4.81
2023-04-02T02:21:09.477Z,4.33
2023-04-02T02:26:14.336Z,4.70
2023-04-02T02:31:22.944Z,4.41
2023-04-02T02:36:40.231Z,4.24
2023-04-02T02:41:50.339Z,4.56
2023-04-02T02:46:58.781Z,5.11
2023-04-02T02:52:10.789Z,4.84
2023-04-02T02:57:20.797Z,4.88
2023-04-02T03:02:26.500Z,4.59
2023-04-02T03:07:31.139Z,4.43
2023-04-02T03:13:00.362Z,4.33
2023-04-02T03:18:08.708Z,4.30
2023-04-02T03:23:24.406Z,4.34
2023-04-02T03:28:41.697Z,4.33
2023-04-02T03:33:57.276Z,4.30
2023-04-02T03:39:20.868Z,4.33
2023-04-02T03:44:53.468Z,4.22
2023-04-02T03:50:03.339Z,3.97
2023-04-02T03:55:20.164Z,3.94
2023-04-02T04:00:35.154Z,3.79
2023-04-02T04:05:48.408Z,3.78
2023-04-02T04:10:58.013Z,3.70
2023-04-02T04:16:07.249Z,3.78
2023-04-02T04:21:37.817Z,3.90
2023-04-02T04:26:40.767Z,4.09
2023-04-02T04:31:49.549Z,4.09
2023-04-02T04:37:03.267Z,4.25
2023-04-02T04:42:12.827Z,4.00
2023-04-02T04:47:21.031Z,3.98
2023-04-02T04:52:23.966Z,3.75
2023-04-02T04:57:35.158Z,3.83
2023-04-02T05:02:52.940Z,3.80
2023-04-02T05:08:05.036Z,3.67
2023-04-02T05:13:29.647Z,3.49
2023-04-02T05:18:40.148Z,3.68
2023-04-02T05:23:43.025Z,3.70
2023-04-02T05:29:09.892Z,3.60
2023-04-02T05:34:13.992Z,3.78
2023-04-02T05:39:22.857Z,3.95
2023-04-02T05:44:32.440Z,3.98
2023-04-02T05:49:59.707Z,3.83
2023-04-02T05:55:05.389Z,3.97
2023-04-02T06:00:21.764Z,4.13
2023-04-02T06:05:29.555Z,4.06
2023-04-02T06:10:43.193Z,4.18
2023-04-02T06:15:47.875Z,4.32
2023-04-02T06:20:51.736Z,4.09
2023-04-02T06:26:02.225Z,4.11
2023-04-02T06:31:11.413Z,4.26
2023-04-02T06:36:14.766Z,4.28
2023-04-02T06:41:22.140Z,4.39
2023-04-02T06:46:47.929Z,4.30
2023-04-02T06:51:54.852Z,4.77
2023-04-02T06:56:57.981Z,4.60
2023-04-02T07:02:15.099Z,4.19
2023-04-02T07:07:18.204Z,4.32
2023-04-02T07:12:25.806Z,4.53
2023-04-02T07:17:28.843Z,4.61
2023-04-02T07:22:32.025Z,4.57
2023-04-02T07:27:35.143Z,5.14
2023-04-02T07:32:38.717Z,4.68
2023-04-02T07:37:41.762Z,4.59
2023-04-02T07:42:45.415Z,4.79
2023-04-02T07:47:48.459Z,4.77
2023-04-02T07:52:51.499Z,4.41
2023-04-02T07:57:57.314Z,4.68
2023-04-02T08:03:00.359Z,5.07
2023-04-02T08:08:03.491Z,4.87
2023-04-02T08:13:06.816Z,4.84
2023-04-02T08:18:11.465Z,5.21
2023-04-02T08:23:18.006Z,5.26
2023-04-02T08:28:21.941Z,5.30
2023-04-02T08:33:25.081Z,5.22
2023-04-02T08:38:28.189Z,5.53
2023-04-02T08:43:45.944Z,5.45
2023-04-02T08:48:57.856Z,5.91
2023-04-02T08:54:09.156Z,5.68
2023-04-02T08:59:35.511Z,5.72
2023-04-02T09:04:38.949Z,5.68
2023-04-02T09:09:43.068Z,5.28
2023-04-02T09:14:51.423Z,5.29
2023-04-02T09:19:59.617Z,5.22
2023-04-02T09:25:05.670Z,5.23
2023-04-02T09:30:30.107Z,5.55
2023-04-02T09:35:36.788Z,5.93
2023-04-02T09:40:55.308Z,5.97
2023-04-02T09:46:15.872Z,5.95
2023-04-02T09:51:31.917Z,5.76
2023-04-02T09:56:37.062Z,6.03
2023-04-02T10:01:41.733Z,6.37
2023-04-02T10:06:50.885Z,6.00
2023-04-02T10:11:55.287Z,5.93
2023-04-02T10:17:05.677Z,6.23
2023-04-02T10:22:32.554Z,6.28
2023-04-02T10:27:42.205Z,6.52
2023-04-02T10:33:09.344Z,6.90
2023-04-02T10:38:31.641Z,6.85
2023-04-02T10:44:19.702Z,7.39
2023-04-02T10:49:31.848Z,7.67
2023-04-02T10:54:52.845Z,7.55
2023-04-02T10:59:59.227Z,7.62
2023-04-02T11:05:11.665Z,7.70
2023-04-02T11:10:19.959Z,8.01
2023-04-02T11:15:23.833Z,7.92
2023-04-02T11:20:48.231Z,7.77
2023-04-02T11:25:51.850Z,7.90
2023-04-02T11:30:56.185Z,7.86
2023-04-02T11:36:44.860Z,8.10
2023-04-02T11:42:02.109Z,8.01
2023-04-02T11:47:25.705Z,8.11
2023-04-02T11:52:32.462Z,8.41
2023-04-02T11:58:03.775Z,7.73
2023-04-02T12:03:33.284Z,6.96
2023-04-02T12:08:57.199Z,7.08
2023-04-02T12:14:02.548Z,8.03
2023-04-02T12:19:09.548Z,7.47
2023-04-02T12:24:20.913Z,7.15
2023-04-02T12:29:28.661Z,6.90
2023-04-02T12:34:31.900Z,6.70
2023-04-02T12:39:37.542Z,6.75
2023-04-02T12:44:49.405Z,6.89
2023-04-02T12:49:54.296Z,7.12
2023-04-02T12:55:05.399Z,7.28
2023-04-02T13:00:21.200Z,7.26
2023-04-02T13:05:45.920Z,7.16
2023-04-02T13:11:03.993Z,7.08
2023-04-02T13:16:13.058Z,7.04
2023-04-02T13:21:30.778Z,6.96
2023-04-02T13:26:33.888Z,6.88
2023-04-02T13:31:37.078Z,6.88
2023-04-02T13:36:40.524Z,6.85
2023-04-02T13:41:45.657Z,6.89
2023-04-02T13:46:49.095Z,7.02
2023-04-02T13:52:03.268Z,7.02
2023-04-02T13:57:06.527Z,7.14
2023-04-02T14:02:25.520Z,7.21
2023-04-02T14:07:52.010Z,7.21
2023-04-02T14:13:11.380Z,7.20
2023-04-02T14:18:51.589Z,6.99
2023-04-02T14:24:22.340Z,6.88
2023-04-02T14:29:51.273Z,6.85
2023-04-02T14:35:28.908Z,6.75
2023-04-02T14:40:51.688Z,6.70
2023-04-02T14:46:02.299Z,6.65
2023-04-02T14:51:15.978Z,6.63
2023-04-02T14:56:22.265Z,6.71
2023-04-02T15:01:38.024Z,6.70
2023-04-02T15:06:45.809Z,6.71
2023-04-02T15:11:53.280Z,6.75
2023-04-02T15:16:56.515Z,6.78
2023-04-02T15:22:02.141Z,6.77
2023-04-02T15:27:27.618Z,6.88
2023-04-02T15:32:31.274Z,6.94
2023-04-02T15:38:08.642Z,6.97
2023-04-02T15:43:24.550Z,6.86
2023-04-02T15:48:38.625Z,6.81
2023-04-02T15:53:57.369Z,6.69
2023-04-02T15:59:03.170Z,6.61
2023-04-02T16:04:41.092Z,6.43
2023-04-02T16:10:30.234Z,6.27
2023-04-02T16:15:47.131Z,6.12
2023-04-02T16:20:53.294Z,5.97
2023-04-02T16:26:08.488Z,5.91
2023-04-02T16:31:32.020Z,5.81
2023-04-02T16:36:38.050Z,5.75
2023-04-02T16:42:25.602Z,5.69
2023-04-02T16:47:54.180Z,5.61
2023-04-02T16:53:36.641Z,5.45
2023-04-02T16:59:03.415Z,5.29
2023-04-02T17:04:28.130Z,5.15
2023-04-02T17:09:52.804Z,5.01
2023-04-02T17:14:59.964Z,4.82
2023-04-02T17:20:06.708Z,4.66
2023-04-02T17:25:24.074Z,4.52
2023-04-02T17:30:33.077Z,4.37
2023-04-02T17:35:51.306Z,4.25
2023-04-02T17:41:19.185Z,4.03
2023-04-02T17:46:32.402Z,3.86
2023-04-02T17:52:03.702Z,3.73
2023-04-02T17:57:12.704Z,3.63
2023-04-02T18:02:34.558Z,3.50
2023-04-02T18:07:37.805Z,3.43
2023-04-02T18:12:57.195Z,3.41
2023-04-02T18:18:16.684Z,3.31
2023-04-02T18:23:32.605Z,3.16
2023-04-02T18:28:46.346Z,3.03
2023-04-02T18:34:11.170Z,2.95
2023-04-02T18:39:32.507Z,2.87
2023-04-02T18:45:02.959Z,2.75
2023-04-02T18:50:16.628Z,2.68
2023-04-02T18:55:28.060Z,2.57
2023-04-02T19:00:34.816Z,2.52
2023-04-02T19:06:01.383Z,2.46
2023-04-02T19:11:09.733Z,2.38
2023-04-02T19:16:18.692Z,2.28
2023-04-02T19:21:49.710Z,2.86
2023-04-02T19:27:20.774Z,2.93
2023-04-02T19:32:45.134Z,2.50
2023-04-02T19:38:03.149Z,3.85
2023-04-02T19:43:09.323Z,3.32
2023-04-02T19:48:12.609Z,2.98
2023-04-02T19:53:16.440Z,4.28
2023-04-02T19:58:27.796Z,2.75
2023-04-02T20:03:31.565Z,3.79
2023-04-02T20:08:36.533Z,3.66
2023-04-02T20:13:39.359Z,3.27
2023-04-02T20:18:43.221Z,4.04
2023-04-02T20:23:46.285Z,3.19
2023-04-02T20:28:49.395Z,3.88
2023-04-02T20:33:57.523Z,3.09
2023-04-02T20:39:00.731Z,3.92
2023-04-02T20:44:03.840Z,2.64
2023-04-02T20:49:07.163Z,3.23
2023-04-02T20:54:10.172Z,3.91
2023-04-02T20:59:13.298Z,3.11
2023-04-02T21:04:16.497Z,3.75
2023-04-02T21:09:21.436Z,2.66
2023-04-02T21:14:24.645Z,4.21
2023-04-02T21:19:27.864Z,2.94
2023-04-02T21:24:31.168Z,3.85
2023-04-02T21:29:34.273Z,2.84
2023-04-02T21:34:37.278Z,4.00
2023-04-02T21:39:40.701Z,2.86
2023-04-02T21:44:43.698Z,3.42
2023-04-02T21:49:46.809Z,2.91
2023-04-02T21:54:49.819Z,3.58
2023-04-02T21:59:57.034Z,3.21
2023-04-02T22:04:59.924Z,2.05
2023-04-02T22:10:02.932Z,2.67
2023-04-02T22:15:07.184Z,4.34
2023-04-02T22:20:10.846Z,2.52
2023-04-02T22:25:13.797Z,3.10
2023-04-02T22:30:16.699Z,3.76
2023-04-02T22:35:19.599Z,2.46
2023-04-02T22:40:22.605Z,3.85
2023-04-02T22:45:25.513Z,2.51
2023-04-02T22:50:28.925Z,3.54
2023-04-02T22:55:32.137Z,2.13
2023-04-02T23:00:36.075Z,3.18
2023-04-02T23:05:39.175Z,2.16
2023-04-02T23:10:42.183Z,2.49
2023-04-02T23:15:45.206Z,2.55
2023-04-02T23:20:48.195Z,1.50
2023-04-02T23:25:51.201Z,2.94
2023-04-02T23:30:54.106Z,1.54
2023-04-02T23:35:57.332Z,2.27
2023-04-02T23:41:00.530Z,2.28
2023-04-02T23:46:03.438Z,1.33
2023-04-02T23:51:07.142Z,2.70
2023-04-02T23:56:10.479Z,1.63
